Sutcliffe, Nevada
Current Conditions -  °F | °C
As of 1:15 AM on Friday 31 Oct 2014 (Local Time) from KRTS Reporting Station
Clear Clear  
Wind Chill: 57°   Ceiling: Unl
Heat Index: 57°   Visibility: 10mi
Dew Point: 23°   Wind: 3mph
Humidity: 27%   Direction: 190°S
Pressure: 29.95"   Gusts: NA
Location:  39.8171°N, 119.63°W
Report Text: KRTS 310815Z AUTO 19003KT 10SM CLR 14/M05 A2995 RMK AO2
Loading
Personal Weather Stations






























Interactive Weather Map
Tropical Storm Tracking
New forecast layout! Learn more

10-Day Weather Forecast

Advertisements
Track Severe Weather on mobile